Latest Weather Observations for Campania

IDT60801

Issued at 6:05 pm EST Wednesday 1 October 2014 (issued every 30 minutes, with the page automatically refreshed every 10 minutes)

About weather observations | Map of weather stations | Latest weather observations for TAS | Other Formats
Station Details ID: 094212 Name: CAMPANIA (KINCORA) Lat: -42.69 Lon: 147.43 Height: 45.0 m
Data from the previous 72 hours. | See also: Recent months at Campania
Date/Time
EST
Temp
°C
App
Temp
°C
Dew
Point
Rel
Hum
%
Delta-T
°C
Wind Press
QNH
hPa
Press
MSL
hPa
Rain
since 9 am
mm
Dir
 
Spd
km/h
Gust
km/h
Spd
kts
Gust
kts
01/06:00pm 11.5 5.8 3.0 56 3.7 W 22 35 12 19 - - 0.0
01/05:30pm 11.9 4.7 2.9 54 3.9 W 30 46 16 25 - - 0.0
01/05:00pm 12.0 6.6 2.2 51 4.2 W 20 35 11 19 - - 0.0
01/04:30pm 12.3 5.3 2.2 50 4.4 W 28 43 15 23 - - 0.0
01/04:12pm 12.7 5.7 2.0 48 4.6 WNW 28 48 15 26 - - 0.0
01/04:00pm 13.3 7.1 2.2 47 4.8 W 24 41 13 22 - - 0.0
01/03:30pm 13.8 6.4 1.8 44 5.2 W 30 41 16 22 - - 0.0
01/03:00pm 14.0 8.2 2.3 45 5.2 W 22 39 12 21 - - 0.0
01/02:30pm 13.7 5.9 2.9 48 4.8 WSW 33 48 18 26 - - 0.0
01/02:00pm 13.7 7.4 3.8 51 4.5 W 26 35 14 19 - - 0.0
01/01:31pm 13.3 6.3 3.9 53 4.3 WSW 30 48 16 26 - - 0.0
01/01:30pm 12.9 5.3 3.0 51 4.4 WSW 32 48 17 26 - - 0.0
01/01:00pm 14.2 8.2 3.4 48 4.9 WNW 24 39 13 21 - - 0.0
01/12:30pm 12.9 7.5 2.7 50 4.5 W 20 43 11 23 - - 0.0
01/12:00pm 11.8 6.9 4.3 60 3.4 W 19 41 10 22 - - 0.0
01/11:31am 11.4 4.6 2.9 56 3.7 WSW 28 50 15 27 - - 0.0
01/11:30am 11.5 5.8 3.0 56 3.7 WSW 22 39 12 21 - - 0.0
01/11:00am 12.4 6.3 2.6 51 4.3 WNW 24 43 13 23 - - 0.0
01/10:30am 12.3 5.8 2.5 51 4.3 WNW 26 41 14 22 - - 0.0
01/10:00am 11.4 5.5 1.9 52 4.1 WNW 22 39 12 21 - - 0.0
01/09:30am 11.1 6.1 3.4 59 3.4 WNW 19 32 10 17 - - 0.0
01/09:00am 9.5 2.6 2.6 62 2.9 WSW 28 39 15 21 - - 5.0
01/08:30am 10.2 5.8 2.6 59 3.3 NW 15 24 8 13 - - 5.0
01/08:00am 9.6 5.0 1.8 58 3.3 WNW 15 22 8 12 - - 5.0
01/07:30am 8.8 4.7 2.4 64 2.7 NW 13 20 7 11 - - 5.0
01/07:00am 7.3 3.1 1.8 68 2.2 N 13 17 7 9 - - 5.0
01/06:30am 4.5 0.7 1.5 81 1.2 N 11 13 6 7 - - 5.0
01/06:00am 4.9 0.6 0.7 74 1.6 NW 13 15 7 8 - - 5.0
01/05:30am 5.7 1.3 0.5 69 2.0 NW 13 17 7 9 - - 5.0
01/05:00am 6.5 1.3 0.4 65 2.4 W 17 24 9 13 - - 5.0
01/04:30am 6.4 1.3 0.9 68 2.2 WNW 17 24 9 13 - - 5.0
01/04:00am 6.4 1.1 1.7 72 1.9 WNW 19 28 10 15 - - 5.0
01/03:30am 5.5 0.2 1.8 77 1.5 W 19 26 10 14 - - 5.0
01/03:00am 6.2 -0.1 1.7 73 1.8 W 24 37 13 20 - - 5.0
01/02:30am 6.6 2.3 1.3 69 2.1 W 13 19 7 10 - - 5.0
01/02:00am 7.5 1.8 0.5 61 2.8 W 20 32 11 17 - - 4.8
01/01:30am 7.1 1.4 0.8 64 2.5 WNW 20 28 11 15 - - 4.8
01/01:00am 7.1 1.6 0.8 64 2.5 WNW 19 28 10 15 - - 4.8
01/12:30am 7.1 1.7 1.2 66 2.4 W 19 30 10 16 - - 4.8
01/12:00am 7.3 1.3 1.0 64 2.5 WNW 22 35 12 19 - - 4.8
 
Date/Time
EST
Temp
°C
App
Temp
°C
Dew
Point
Rel
Hum
%
Delta-T
°C
Wind Press
QNH
hPa
Press
MSL
hPa
Rain
since 9 am
mm
Dir
 
Spd
km/h
Gust
km/h
Spd
kts
Gust
kts
30/11:30pm 7.5 2.0 0.9 63 2.6 WNW 19 30 10 16 - - 4.8
30/11:00pm 7.0 2.7 1.3 67 2.3 W 13 20 7 11 - - 4.8
30/10:30pm 7.8 2.4 1.4 64 2.6 W 19 30 10 16 - - 4.8
30/10:00pm 7.5 2.2 1.6 66 2.4 W 19 26 10 14 - - 4.8
30/09:30pm 7.7 2.2 1.8 66 2.4 W 20 28 11 15 - - 4.8
30/09:00pm 7.3 2.4 2.0 69 2.2 W 17 28 9 15 - - 4.8
30/08:30pm 7.8 2.0 2.1 67 2.4 W 22 37 12 20 - - 4.8
30/08:00pm 8.1 1.5 2.1 66 2.5 W 26 43 14 23 - - 4.8
30/07:30pm 8.5 2.3 1.9 63 2.7 W 24 32 13 17 - - 4.8
30/07:05pm 8.8 1.9 2.8 66 2.5 W 28 46 15 25 - - 4.8
30/07:00pm 8.7 2.3 3.3 69 2.3 W 26 39 14 21 - - 4.8
30/06:30pm 9.5 3.0 4.7 72 2.1 W 28 50 15 27 - - 4.8
30/06:24pm 9.5 2.2 4.7 72 2.1 W 32 50 17 27 - - 4.8
30/06:20pm 9.6 2.1 4.6 71 2.2 W 33 50 18 27 - - 4.8
30/06:00pm 9.8 5.2 6.7 81 1.5 WNW 20 30 11 16 - - 4.8
30/05:30pm 9.8 6.0 7.7 87 1.0 WNW 17 41 9 22 - - 3.8
30/05:15pm 10.5 4.6 7.4 81 1.5 WSW 28 41 15 22 - - 2.4
30/05:00pm 12.3 8.6 6.1 66 2.9 WNW 15 22 8 12 - - 2.0
30/04:30pm 12.4 9.2 6.9 69 2.6 WNW 13 19 7 10 - - 2.0
30/04:00pm 12.1 8.5 6.6 69 2.6 NW 15 20 8 11 - - 2.0
30/03:30pm 12.2 8.8 7.7 74 2.2 NW 15 24 8 13 - - 2.0
30/03:00pm 11.0 6.8 7.5 79 1.7 NNW 19 32 10 17 - - 2.0
30/02:30pm 11.2 6.8 7.5 78 1.8 WNW 20 37 11 20 - - 1.4
30/02:00pm 11.6 8.1 8.6 82 1.5 W 17 39 9 21 - - 0.8
30/01:41pm 14.3 8.5 8.0 66 3.1 WNW 28 61 15 33 - - 0.0
30/01:30pm 16.6 10.9 8.3 58 4.2 NNW 28 43 15 23 - - 0.0
30/01:00pm 17.7 12.5 7.2 50 5.3 NW 24 37 13 20 - - 0.0
30/12:30pm 16.4 12.5 10.9 70 2.9 N 22 30 12 16 - - 0.0
30/12:00pm 15.9 11.4 10.2 69 3.0 N 24 35 13 19 - - 0.0
30/11:31am 18.5 12.8 8.5 52 5.2 NW 28 46 15 25 - - 0.0
30/11:30am 18.6 12.6 8.6 52 5.2 NW 30 46 16 25 - - 0.0
30/11:00am 19.3 11.4 7.7 47 5.9 NNW 39 57 21 31 - - 0.0
30/10:30am 18.8 11.4 6.6 45 6.1 NNW 35 59 19 32 - - 0.0
30/10:00am 18.5 10.9 5.7 43 6.3 NNW 35 61 19 33 - - 0.0
30/09:30am 18.0 10.8 4.9 42 6.3 N 32 54 17 29 - - 0.0
30/09:00am 18.1 10.9 5.7 44 6.1 N 33 52 18 28 - - 0.0
30/08:30am 17.1 10.2 4.8 44 5.9 N 30 50 16 27 - - 0.0
30/08:00am 16.5 7.9 4.9 46 5.5 NNW 39 63 21 34 - - 0.0
30/07:30am 16.0 9.1 4.7 47 5.3 NNW 30 61 16 33 - - 0.0
30/07:09am 15.2 8.8 5.1 51 4.8 N 28 46 15 25 - - 0.0
30/07:00am 14.5 9.3 5.3 54 4.3 N 22 39 12 21 - - 0.0
30/06:30am 12.4 7.7 5.3 62 3.3 N 19 32 10 17 - - 0.0
30/06:00am 12.3 7.4 5.0 61 3.4 N 20 35 11 19 - - 0.0
30/05:30am 12.4 8.1 5.1 61 3.4 N 17 30 9 16 - - 0.0
30/05:00am 12.1 7.4 5.0 62 3.3 N 19 26 10 14 - - 0.0
30/04:30am 12.7 8.5 3.9 55 4.0 NNE 15 33 8 18 - - 0.0
30/04:00am 13.9 8.8 4.2 52 4.4 N 20 33 11 18 - - 0.0
30/03:30am 14.4 8.9 4.1 50 4.7 N 22 43 12 23 - - 0.0
30/03:00am 14.7 8.1 4.1 49 4.9 NNW 28 41 15 22 - - 0.0
30/02:30am 14.1 9.3 4.4 52 4.5 NNW 19 35 10 19 - - 0.0
30/02:00am 13.0 9.0 4.7 57 3.8 N 15 39 8 21 - - 0.0
30/01:30am 12.9 8.9 5.1 59 3.6 N 15 24 8 13 - - 0.0
30/01:00am 13.4 10.2 5.1 57 3.9 NNE 11 19 6 10 - - 0.0
30/12:30am 13.4 9.4 4.8 56 4.0 NNE 15 24 8 13 - - 0.0
30/12:00am 13.6 9.2 4.7 55 4.1 NNW 17 28 9 15 - - 0.0
 
Date/Time
EST
Temp
°C
App
Temp
°C
Dew
Point
Rel
Hum
%
Delta-T
°C
Wind Press
QNH
hPa
Press
MSL
hPa
Rain
since 9 am
mm
Dir
 
Spd
km/h
Gust
km/h
Spd
kts
Gust
kts
29/11:30pm 14.4 9.1 5.0 53 4.4 NNW 22 39 12 21 - - 0.0
29/11:10pm 14.2 7.7 4.8 53 4.4 NNW 28 48 15 26 - - 0.0
29/11:00pm 13.3 7.6 5.0 57 3.9 N 24 41 13 22 - - 0.0
29/10:30pm 12.3 6.9 4.5 59 3.6 N 22 32 12 17 - - 0.0
29/10:00pm 12.2 6.4 4.4 59 3.5 N 24 30 13 16 - - 0.0
29/09:30pm 12.8 6.2 4.0 55 4.0 N 28 43 15 23 - - 0.0
29/09:00pm 13.4 7.4 3.2 50 4.6 N 24 35 13 19 - - 0.0
29/08:30pm 13.4 7.7 2.6 48 4.8 N 22 32 12 17 - - 0.0
29/08:00pm 13.9 7.8 2.8 47 4.9 NW 24 33 13 18 - - 0.0
29/07:30pm 14.5 8.3 2.4 44 5.4 NW 24 37 13 20 - - 0.0
29/07:00pm 15.2 7.2 1.7 40 5.9 WNW 33 54 18 29 - - 0.0
29/06:32pm 15.5 8.2 2.3 41 5.9 WNW 30 48 16 26 - - 0.0
29/06:30pm 15.5 7.8 2.3 41 5.9 WNW 32 48 17 26 - - 0.0
29/06:00pm 16.2 9.0 2.9 41 6.0 NW 30 48 16 26 - - 0.0
29/05:42pm 16.6 8.8 1.9 37 6.6 WNW 32 54 17 29 - - 0.0
29/05:30pm 16.9 10.8 2.5 38 6.5 WNW 24 33 13 18 - - 0.0
29/05:05pm 17.4 10.4 1.8 35 7.0 WNW 28 46 15 25 - - 0.0
29/05:00pm 17.5 9.8 2.3 36 6.9 WNW 32 46 17 25 - - 0.0
29/04:30pm 18.1 11.7 3.2 37 6.9 NW 26 41 14 22 - - 0.0
29/04:14pm 18.2 11.5 3.7 38 6.8 WNW 28 48 15 26 - - 0.0
29/04:00pm 18.2 11.9 3.7 38 6.8 WNW 26 41 14 22 - - 0.0
29/03:30pm 18.0 10.4 3.1 37 6.9 NW 32 50 17 27 - - 0.0
29/03:04pm 18.2 11.4 3.3 37 6.9 WNW 28 46 15 25 - - 0.0
29/03:00pm 18.6 12.2 3.3 36 7.2 WNW 26 39 14 21 - - 0.0
29/02:30pm 18.5 11.6 2.8 35 7.3 NW 28 44 15 24 - - 0.0
29/02:13pm 18.4 10.6 2.7 35 7.2 NW 33 56 18 30 - - 0.0
29/02:00pm 18.1 10.7 1.6 33 7.4 WNW 30 43 16 23 - - 0.0
29/01:32pm 18.1 11.0 1.2 32 7.5 NW 28 46 15 25 - - 0.0
29/01:30pm 18.8 11.9 2.6 34 7.5 NW 28 41 15 22 - - 0.0
29/01:13pm 18.2 11.3 2.5 35 7.2 NW 28 46 15 25 - - 0.0
29/01:00pm 17.9 11.7 2.2 35 7.1 WNW 24 41 13 22 - - 0.0
29/12:30pm 17.4 10.4 2.2 36 6.9 NW 28 48 15 26 - - 0.0
29/12:14pm 16.8 8.1 2.0 37 6.6 WNW 37 57 20 31 - - 0.0
29/12:12pm 16.6 6.6 1.1 35 6.8 W 43 57 23 31 - - 0.0
29/12:00pm 17.0 9.3 2.2 37 6.7 NW 32 52 17 28 - - 0.0
29/11:55am 17.5 9.1 3.8 40 6.4 NW 37 56 20 30 - - 0.0
29/11:47am 16.5 6.7 2.2 38 6.4 NNW 43 54 23 29 - - 0.0
29/11:30am 16.6 9.5 3.6 42 6.0 WNW 30 50 16 27 - - 0.0
29/11:24am 16.0 8.3 2.4 40 6.1 WNW 32 50 17 27 - - 0.0
29/11:15am 15.9 8.1 3.0 42 5.9 WNW 33 48 18 26 - - 0.0
29/11:00am 16.4 7.5 3.1 41 6.1 NNW 39 52 21 28 - - 0.0
29/10:59am 16.8 8.1 4.2 43 5.9 NNW 39 52 21 28 - - 0.0
29/10:46am 15.8 8.7 1.5 38 6.3 WNW 28 48 15 26 - - 0.0
29/10:30am 15.9 10.0 3.7 44 5.6 WNW 24 41 13 22 - - 0.0
29/10:07am 15.0 7.1 2.5 43 5.6 WNW 33 54 18 29 - - 0.0
29/10:00am 14.9 6.6 2.4 43 5.6 WNW 35 48 19 26 - - 0.0
29/09:33am 14.6 6.7 0.8 39 5.9 W 32 59 17 32 - - 0.0
29/09:30am 14.6 7.1 1.2 40 5.8 W 30 44 16 24 - - 0.0
29/09:06am 14.1 6.2 2.4 45 5.2 WNW 33 59 18 32 - - 0.0
29/09:00am 14.2 6.3 2.1 44 5.3 WNW 33 48 18 26 - - 0.2
29/08:30am 13.4 5.7 2.3 47 4.9 WNW 32 54 17 29 - - 0.2
29/08:26am 13.6 6.1 3.7 51 4.5 WNW 32 50 17 27 - - 0.2
29/08:00am 12.8 4.8 4.0 55 4.0 NW 35 52 19 28 - - 0.2
29/07:30am 12.4 6.1 3.9 56 3.8 NW 26 41 14 22 - - 0.2
29/07:04am 11.8 4.7 3.8 58 3.6 NW 30 48 16 26 - - 0.2
29/07:00am 11.7 5.1 4.2 60 3.4 NW 28 43 15 23 - - 0.2
29/06:30am 11.0 6.1 4.2 63 3.0 NNW 19 28 10 15 - - 0.2
29/06:00am 10.8 6.6 3.8 62 3.1 NW 15 28 8 15 - - 0.2
29/05:30am 10.2 6.6 4.8 69 2.4 NW 13 19 7 10 - - 0.2
29/05:00am 10.7 5.6 5.9 72 2.2 NW 22 32 12 17 - - 0.2
29/04:30am 11.0 4.8 6.2 72 2.2 WNW 28 41 15 22 - - 0.2
29/04:21am 11.4 5.2 6.3 71 2.4 WNW 28 48 15 26 - - 0.2
29/04:00am 11.5 6.2 7.0 74 2.2 NW 24 39 13 21 - - 0.2
29/03:39am 12.0 5.9 6.7 70 2.5 NNW 28 50 15 27 - - 0.0
29/03:30am 12.3 6.7 5.5 63 3.2 N 24 32 13 17 - - 0.0
29/03:00am 13.1 8.1 3.7 53 4.2 N 19 26 10 14 - - 0.0
29/02:30am 12.8 7.6 3.7 54 4.1 N 20 32 11 17 - - 0.0
29/02:00am 13.9 7.5 3.1 48 4.8 NNW 26 39 14 21 - - 0.0
29/01:30am 13.8 8.5 3.0 48 4.8 NNW 20 39 11 21 - - 0.0
29/01:00am 14.2 8.9 3.1 47 5.0 NW 20 33 11 18 - - 0.0
29/12:30am 15.0 9.9 2.9 44 5.4 WNW 19 30 10 16 - - 0.0
29/12:00am 15.7 10.6 4.1 46 5.4 WNW 20 35 11 19 - - 0.0
 
Date/Time
EST
Temp
°C
App
Temp
°C
Dew
Point
Rel
Hum
%
Delta-T
°C
Wind Press
QNH
hPa
Press
MSL
hPa
Rain
since 9 am
mm
Dir
 
Spd
km/h
Gust
km/h
Spd
kts
Gust
kts
28/11:30pm 16.4 11.9 7.1 54 4.6 WNW 20 33 11 18 - - 0.0
28/11:00pm 15.8 15.0 9.7 67 3.2 W 4 7 2 4 - - 0.0
28/10:30pm 17.2 12.9 10.6 65 3.5 N 24 33 13 18 - - 0.0
28/10:00pm 17.7 13.4 10.6 63 3.8 N 24 32 13 17 - - 0.0
28/09:30pm 16.9 12.9 10.3 65 3.5 N 22 32 12 17 - - 0.0
28/09:00pm 17.7 13.3 10.3 62 3.9 N 24 30 13 16 - - 0.0
28/08:30pm 17.7 13.4 10.6 63 3.8 N 24 32 13 17 - - 0.0
28/08:00pm 18.4 14.0 10.5 60 4.2 N 24 35 13 19 - - 0.0
28/07:30pm 18.3 14.0 10.7 61 4.1 N 24 33 13 18 - - 0.0
28/07:00pm 18.3 12.3 10.9 62 4.0 N 33 46 18 25 - - 0.0
28/06:30pm 18.3 11.2 10.9 62 4.0 N 39 52 21 28 - - 0.0

Other Formats:

Comma delimited format used in spreadsheet applications
http://www.bom.gov.au/fwo/IDT60801/IDT60801.95972.axf

JavaScript Object Notation format (JSON) in row-major order
http://www.bom.gov.au/fwo/IDT60801/IDT60801.95972.json